createdAt,value
2022-10-23T00:00:40.574Z,9.443722
2022-10-23T00:01:40.526Z,9.443802
2022-10-23T00:02:40.948Z,9.443793
2022-10-23T00:03:40.514Z,9.443810
2022-10-23T00:04:40.519Z,9.443769
2022-10-23T00:05:40.497Z,9.443734
2022-10-23T00:06:40.479Z,9.443674
2022-10-23T00:07:40.467Z,9.443707
2022-10-23T00:08:40.458Z,9.443686
2022-10-23T00:09:40.538Z,9.443756
2022-10-23T00:10:40.458Z,9.443770
2022-10-23T00:11:40.454Z,9.443751
2022-10-23T00:12:40.799Z,9.443796
2022-10-23T00:13:40.441Z,9.443592
2022-10-23T00:14:40.434Z,9.443735
2022-10-23T00:15:40.471Z,9.443720
2022-10-23T00:16:40.434Z,9.443608
2022-10-23T00:17:40.711Z,9.443701
2022-10-23T00:18:40.431Z,9.443757
2022-10-23T00:19:40.399Z,9.443739
2022-10-23T00:20:40.402Z,9.443643
2022-10-23T00:21:40.418Z,9.443645
2022-10-23T00:22:40.382Z,9.443631
2022-10-23T00:23:40.375Z,9.443658
2022-10-23T00:24:40.372Z,9.443748
2022-10-23T00:25:40.362Z,9.443712
2022-10-23T00:26:40.378Z,9.443702
2022-10-23T00:27:40.646Z,9.443686
2022-10-23T00:28:40.349Z,9.443622
2022-10-23T00:29:40.374Z,9.443586
2022-10-23T00:30:41.316Z,9.443594
2022-10-23T00:31:40.347Z,9.443590
2022-10-23T00:32:44.006Z,9.443641
2022-10-23T00:33:40.308Z,9.443724
2022-10-23T00:34:40.300Z,9.443815
2022-10-23T00:35:40.297Z,9.443727
2022-10-23T00:36:40.293Z,9.443651
2022-10-23T00:37:40.657Z,9.443550
2022-10-23T00:38:40.276Z,9.443600
2022-10-23T00:39:40.261Z,9.443699
2022-10-23T00:40:40.298Z,9.443723
2022-10-23T00:41:40.254Z,9.443620
2022-10-23T00:42:40.515Z,9.443615
2022-10-23T00:43:40.261Z,9.443590
2022-10-23T00:44:40.246Z,9.443517
2022-10-23T00:45:40.260Z,9.443589
2022-10-23T00:46:40.214Z,9.443654
2022-10-23T00:47:40.209Z,9.443643
2022-10-23T00:48:40.237Z,9.443618
2022-10-23T00:49:42.701Z,9.443615
2022-10-23T00:50:40.188Z,9.443656
2022-10-23T00:51:40.171Z,9.443703
2022-10-23T00:52:40.478Z,9.443729
2022-10-23T00:53:40.193Z,9.443691
2022-10-23T00:54:40.167Z,9.443639
2022-10-23T00:55:40.159Z,9.443701
2022-10-23T00:56:40.139Z,9.443707
2022-10-23T00:57:40.153Z,9.443618
2022-10-23T00:58:40.133Z,9.443645
2022-10-23T00:59:40.136Z,9.443529
2022-10-23T01:00:40.124Z,9.443511
2022-10-23T01:01:40.280Z,9.443651
2022-10-23T01:02:40.349Z,9.443683
2022-10-23T01:03:40.128Z,9.443607
2022-10-23T01:04:40.104Z,9.443597
2022-10-23T01:05:40.118Z,9.443581
2022-10-23T01:06:40.080Z,9.443559
2022-10-23T01:07:40.348Z,9.443617
2022-10-23T01:08:40.063Z,9.443646
2022-10-23T01:09:40.083Z,9.443663
2022-10-23T01:10:40.076Z,9.443591
2022-10-23T01:11:40.052Z,9.443574
2022-10-23T01:12:40.052Z,9.443598
2022-10-23T01:13:40.056Z,9.443682
2022-10-23T01:14:40.060Z,9.443713
2022-10-23T01:15:40.031Z,9.443558
2022-10-23T01:16:40.032Z,9.443612
2022-10-23T01:17:42.460Z,9.443604
2022-10-23T01:18:40.030Z,9.443596
2022-10-23T01:19:40.005Z,9.443542
2022-10-23T01:20:40.006Z,9.443532
2022-10-23T01:21:39.996Z,9.443558
2022-10-23T01:22:41.381Z,9.443697
2022-10-23T01:23:39.992Z,9.443642
2022-10-23T01:25:12.450Z,9.443664
2022-10-23T01:25:39.969Z,9.443719
2022-10-23T01:26:40.004Z,9.443629
2022-10-23T01:27:39.953Z,9.443612
2022-10-23T01:28:39.956Z,9.443691
2022-10-23T01:29:39.976Z,9.443647
2022-10-23T01:30:42.940Z,9.443635
2022-10-23T01:31:40.716Z,9.443624
2022-10-23T01:32:40.172Z,9.443615
2022-10-23T01:33:39.916Z,9.443534
2022-10-23T01:34:39.942Z,9.443600
2022-10-23T01:35:39.912Z,9.443610
2022-10-23T01:36:39.931Z,9.443639
2022-10-23T01:37:39.890Z,9.443686
2022-10-23T01:38:39.877Z,9.443683
2022-10-23T01:39:40.214Z,9.443684
2022-10-23T01:40:40.705Z,9.443670
2022-10-23T01:41:39.860Z,9.443666
2022-10-23T01:42:40.011Z,9.443716
2022-10-23T01:43:39.863Z,9.443715
2022-10-23T01:44:39.842Z,9.443679
2022-10-23T01:45:39.879Z,9.443702
2022-10-23T01:46:39.846Z,9.443656
2022-10-23T01:47:39.985Z,9.443679
2022-10-23T01:48:39.850Z,9.443665
2022-10-23T01:49:39.818Z,9.443655
2022-10-23T01:50:39.840Z,9.443678
2022-10-23T01:51:39.817Z,9.443766
2022-10-23T01:52:39.792Z,9.443751
2022-10-23T01:53:39.784Z,9.443666
2022-10-23T01:54:39.812Z,9.443723
2022-10-23T01:55:39.825Z,9.443762
2022-10-23T01:56:39.889Z,9.443718
2022-10-23T01:57:39.976Z,9.443715
2022-10-23T01:58:39.772Z,9.443800
2022-10-23T01:59:39.743Z,9.443780
2022-10-23T02:00:39.752Z,9.443758
2022-10-23T02:01:39.809Z,9.443736
2022-10-23T02:02:39.752Z,9.443736
2022-10-23T02:03:39.716Z,9.443758
2022-10-23T02:04:39.729Z,9.443768
2022-10-23T02:05:39.722Z,9.443758
2022-10-23T02:06:39.737Z,9.443747
2022-10-23T02:07:39.980Z,9.443757
2022-10-23T02:08:39.713Z,9.443795
2022-10-23T02:09:39.752Z,9.443761
2022-10-23T02:10:39.704Z,9.443687
2022-10-23T02:11:39.692Z,9.443692
2022-10-23T02:12:39.669Z,9.443722
2022-10-23T02:13:39.677Z,9.443724
2022-10-23T02:14:39.661Z,9.443709
2022-10-23T02:15:39.721Z,9.443775
2022-10-23T02:16:39.654Z,9.443785
2022-10-23T02:17:39.841Z,9.443748
2022-10-23T02:18:40.227Z,9.443724
2022-10-23T02:19:39.642Z,9.443736
2022-10-23T02:20:39.734Z,9.443811
2022-10-23T02:21:40.627Z,9.443698
2022-10-23T02:22:39.861Z,9.443737
2022-10-23T02:23:39.606Z,9.443772
2022-10-23T02:24:39.602Z,9.443757
2022-10-23T02:25:39.610Z,9.443870
2022-10-23T02:26:39.632Z,9.443791
2022-10-23T02:27:39.619Z,9.443861
2022-10-23T02:28:39.568Z,9.443881
2022-10-23T02:29:39.598Z,9.443752
2022-10-23T02:30:39.577Z,9.443709
2022-10-23T02:31:39.557Z,9.443686
2022-10-23T02:32:39.797Z,9.443631
2022-10-23T02:33:39.564Z,9.443668
2022-10-23T02:34:39.538Z,9.443687
2022-10-23T02:35:40.229Z,9.443810
2022-10-23T02:36:39.537Z,9.443846
2022-10-23T02:37:39.751Z,9.443661
2022-10-23T02:38:39.535Z,9.443703
2022-10-23T02:39:39.511Z,9.443706
2022-10-23T02:40:39.494Z,9.443680
2022-10-23T02:41:40.241Z,9.443678
2022-10-23T02:42:39.514Z,9.443674
2022-10-23T02:43:39.502Z,9.443686
2022-10-23T02:44:39.501Z,9.443665
2022-10-23T02:46:39.490Z,9.443640
2022-10-23T02:47:39.656Z,9.443590
2022-10-23T02:48:39.457Z,9.443605
2022-10-23T02:49:40.099Z,9.443627
2022-10-23T02:50:39.507Z,9.443690
2022-10-23T02:51:39.421Z,9.443587
2022-10-23T02:52:39.438Z,9.443589
2022-10-23T02:53:39.422Z,9.443694
2022-10-23T02:54:39.449Z,9.443699
2022-10-23T02:55:39.442Z,9.443766
2022-10-23T02:56:39.410Z,9.443768
2022-10-23T02:57:39.555Z,9.443727
2022-10-23T02:58:39.389Z,9.443697
2022-10-23T02:59:39.377Z,9.443688
2022-10-23T03:00:39.409Z,9.443700
2022-10-23T03:01:39.460Z,9.443657
2022-10-23T03:02:39.374Z,9.443698
2022-10-23T03:03:39.362Z,9.443744
2022-10-23T03:04:39.427Z,9.443705
2022-10-23T03:05:39.353Z,9.443674
2022-10-23T03:06:39.365Z,9.443698
2022-10-23T03:07:39.444Z,9.443660
2022-10-23T03:08:39.325Z,9.443639
2022-10-23T03:09:39.334Z,9.443589
2022-10-23T03:10:39.378Z,9.443629
2022-10-23T03:11:39.320Z,9.443645
2022-10-23T03:12:39.576Z,9.443640
2022-10-23T03:13:39.325Z,9.443645
2022-10-23T03:14:39.274Z,9.443576
2022-10-23T03:15:39.294Z,9.443624
2022-10-23T03:16:42.224Z,9.443573
2022-10-23T03:17:39.285Z,9.443606
2022-10-23T03:18:39.256Z,9.443646
2022-10-23T03:19:39.288Z,9.443631
2022-10-23T03:20:39.439Z,9.443628
2022-10-23T03:21:39.252Z,9.443606
2022-10-23T03:22:39.240Z,9.443554
2022-10-23T03:23:39.248Z,9.443547
2022-10-23T03:24:39.248Z,9.443796
2022-10-23T03:25:39.228Z,9.443695
2022-10-23T03:26:39.250Z,9.443693
2022-10-23T03:27:39.199Z,9.443660
2022-10-23T03:28:40.198Z,9.443782
2022-10-23T03:29:39.211Z,9.443576
2022-10-23T03:30:39.191Z,9.443606
2022-10-23T03:31:39.183Z,9.443716
2022-10-23T03:32:39.200Z,9.443759
2022-10-23T03:33:39.170Z,9.443764
2022-10-23T03:34:39.176Z,9.443701
2022-10-23T03:35:39.226Z,9.443713
2022-10-23T03:36:39.143Z,9.443765
2022-10-23T03:37:39.151Z,9.443866
2022-10-23T03:38:39.137Z,9.443892
2022-10-23T03:39:39.152Z,9.443773
2022-10-23T03:40:39.127Z,9.443716
2022-10-23T03:41:39.135Z,9.443728
2022-10-23T03:42:39.112Z,9.443730
2022-10-23T03:43:40.136Z,9.443765
2022-10-23T03:44:39.120Z,9.443735
2022-10-23T03:45:39.104Z,9.443733
2022-10-23T03:46:39.091Z,9.443740
2022-10-23T03:47:39.170Z,9.443746
2022-10-23T03:48:39.093Z,9.443726
2022-10-23T03:49:39.712Z,9.443700
2022-10-23T03:50:39.056Z,9.443650
2022-10-23T03:51:39.060Z,9.443620
2022-10-23T03:52:39.288Z,9.443629
2022-10-23T03:53:39.048Z,9.443641
2022-10-23T03:54:39.023Z,9.443673
2022-10-23T03:55:39.031Z,9.443748
2022-10-23T03:56:39.016Z,9.443673
2022-10-23T03:57:39.027Z,9.443722
2022-10-23T03:58:40.004Z,9.443704
2022-10-23T03:59:39.033Z,9.443651
2022-10-23T04:00:40.070Z,9.443591
2022-10-23T04:01:39.066Z,9.443713
2022-10-23T04:02:39.092Z,9.443625
2022-10-23T04:03:38.994Z,9.443460
2022-10-23T04:04:38.958Z,9.443478
2022-10-23T04:05:39.989Z,9.443677
2022-10-23T04:06:38.967Z,9.443690
2022-10-23T04:07:38.951Z,9.443659
2022-10-23T04:08:38.962Z,9.443686
2022-10-23T04:09:38.909Z,9.443668
2022-10-23T04:10:39.937Z,9.443664
2022-10-23T04:11:38.956Z,9.443696
2022-10-23T04:12:38.915Z,9.443669
2022-10-23T04:13:38.907Z,9.443763
2022-10-23T04:14:38.907Z,9.443602
2022-10-23T04:15:38.928Z,9.443512
2022-10-23T04:16:38.884Z,9.443641
2022-10-23T04:17:38.879Z,9.443641
2022-10-23T04:18:38.948Z,9.443660
2022-10-23T04:19:38.871Z,9.443678
2022-10-23T04:20:38.887Z,9.443682
2022-10-23T04:21:38.871Z,9.443714
2022-10-23T04:22:38.840Z,9.443686
2022-10-23T04:23:38.879Z,9.443700
2022-10-23T04:24:38.839Z,9.443698
2022-10-23T04:25:38.872Z,9.443727
2022-10-23T04:26:38.836Z,9.443748
2022-10-23T04:27:40.307Z,9.443728
2022-10-23T04:28:38.814Z,9.443757
2022-10-23T04:29:38.798Z,9.443737
2022-10-23T04:30:38.799Z,9.443748
2022-10-23T04:31:38.788Z,9.443717
2022-10-23T04:32:38.835Z,9.443727
2022-10-23T04:33:38.787Z,9.443707
2022-10-23T04:34:38.786Z,9.443731
2022-10-23T04:35:38.755Z,9.443750
2022-10-23T04:36:38.759Z,9.443749
2022-10-23T04:37:38.759Z,9.443745
2022-10-23T04:38:38.745Z,9.443758
2022-10-23T04:39:38.740Z,9.443725
2022-10-23T04:40:38.732Z,9.443752
2022-10-23T04:41:40.832Z,9.443765
2022-10-23T04:42:38.743Z,9.443783
2022-10-23T04:43:38.703Z,9.443545
2022-10-23T04:44:38.706Z,9.443714
2022-10-23T04:45:38.686Z,9.443760
2022-10-23T04:46:38.694Z,9.443746
2022-10-23T04:47:39.644Z,9.443813
2022-10-23T04:48:38.689Z,9.443810
2022-10-23T04:49:38.664Z,9.443851
2022-10-23T04:50:38.710Z,9.443625
2022-10-23T04:51:38.683Z,9.443673
2022-10-23T04:52:39.373Z,9.443663
2022-10-23T04:53:39.644Z,9.443823
2022-10-23T04:54:38.635Z,9.443774
2022-10-23T04:55:38.648Z,9.443769
2022-10-23T04:56:38.612Z,9.443857
2022-10-23T04:57:39.212Z,9.443891
2022-10-23T04:58:38.628Z,9.443826
2022-10-23T04:59:38.611Z,9.443887
2022-10-23T05:00:38.640Z,9.443901
2022-10-23T05:01:38.642Z,9.443922
2022-10-23T05:02:38.598Z,9.443860
2022-10-23T05:03:38.572Z,9.443766
2022-10-23T05:04:38.567Z,9.443702
2022-10-23T05:05:38.566Z,9.443768
2022-10-23T05:06:38.811Z,9.443857
2022-10-23T05:07:38.543Z,9.443954
2022-10-23T05:08:38.599Z,9.443862
2022-10-23T05:09:38.515Z,9.443810
2022-10-23T05:10:38.531Z,9.443874
2022-10-23T05:11:38.518Z,9.443777
2022-10-23T05:12:38.490Z,9.443687
2022-10-23T05:13:39.503Z,9.443810
2022-10-23T05:14:38.510Z,9.443803
2022-10-23T05:15:38.570Z,9.443755
2022-10-23T05:16:38.502Z,9.443737
2022-10-23T05:17:38.483Z,9.443733
2022-10-23T05:18:38.486Z,9.443741
2022-10-23T05:19:38.466Z,9.443757
2022-10-23T05:20:38.491Z,9.443709
2022-10-23T05:21:38.471Z,9.443798
2022-10-23T05:22:38.462Z,9.443777
2022-10-23T05:23:39.195Z,9.443671
2022-10-23T05:24:38.455Z,9.443772
2022-10-23T05:25:39.116Z,9.443761
2022-10-23T05:26:38.435Z,9.443778
2022-10-23T05:27:38.413Z,9.443774
2022-10-23T05:28:38.406Z,9.443815
2022-10-23T05:29:38.427Z,9.443797
2022-10-23T05:30:39.213Z,9.443784
2022-10-23T05:31:38.382Z,9.443777
2022-10-23T05:32:38.379Z,9.443808
2022-10-23T05:33:38.367Z,9.443813
2022-10-23T05:34:38.361Z,9.443788
2022-10-23T05:35:38.382Z,9.443774
2022-10-23T05:36:38.338Z,9.443761
2022-10-23T05:37:38.368Z,9.443749
2022-10-23T05:38:38.342Z,9.443707
2022-10-23T05:39:38.334Z,9.443736
2022-10-23T05:41:38.299Z,9.443725
2022-10-23T05:42:40.855Z,9.443711
2022-10-23T05:43:38.306Z,9.443707
2022-10-23T05:44:38.327Z,9.443721
2022-10-23T05:45:38.282Z,9.443708
2022-10-23T05:46:38.276Z,9.443701
2022-10-23T05:47:38.287Z,9.443715
2022-10-23T05:48:38.291Z,9.443730
2022-10-23T05:49:38.271Z,9.443716
2022-10-23T05:50:38.292Z,9.443688
2022-10-23T05:51:38.255Z,9.443703
2022-10-23T05:52:38.235Z,9.443713
2022-10-23T05:53:40.380Z,9.443693
2022-10-23T05:54:38.287Z,9.443720
2022-10-23T05:55:38.231Z,9.443704
2022-10-23T05:56:38.223Z,9.443663
2022-10-23T05:57:38.210Z,9.443720
2022-10-23T05:58:38.204Z,9.443748
2022-10-23T05:59:38.183Z,9.443775
2022-10-23T06:00:39.214Z,9.443745
2022-10-23T06:01:38.364Z,9.443719
2022-10-23T06:02:38.217Z,9.443762
2022-10-23T06:03:38.191Z,9.443742
2022-10-23T06:04:38.166Z,9.443702
2022-10-23T06:06:38.155Z,9.443666
2022-10-23T06:07:38.139Z,9.443703
2022-10-23T06:08:38.146Z,9.443732
2022-10-23T06:09:38.127Z,9.443727
2022-10-23T06:10:38.142Z,9.443710
2022-10-23T06:11:38.271Z,9.443714
2022-10-23T06:12:38.118Z,9.443712
2022-10-23T06:13:38.095Z,9.443718
2022-10-23T06:14:38.091Z,9.443726
2022-10-23T06:15:38.091Z,9.443702
2022-10-23T06:16:38.123Z,9.443714
2022-10-23T06:17:38.078Z,9.443684
2022-10-23T06:18:38.066Z,9.443664
2022-10-23T06:19:38.070Z,9.443686
2022-10-23T06:20:39.061Z,9.443667
2022-10-23T06:21:38.054Z,9.443678
2022-10-23T06:22:38.087Z,9.443633
2022-10-23T06:23:38.036Z,9.443635
2022-10-23T06:24:38.030Z,9.443660
2022-10-23T06:25:38.049Z,9.443684
2022-10-23T06:26:38.047Z,9.443688
2022-10-23T06:27:38.037Z,9.443723
2022-10-23T06:28:38.035Z,9.443749
2022-10-23T06:29:38.037Z,9.443715
2022-10-23T06:31:37.973Z,9.443756
2022-10-23T06:32:37.993Z,9.443776
2022-10-23T06:33:37.970Z,9.443790
2022-10-23T06:34:37.945Z,9.443810
2022-10-23T06:35:38.965Z,9.443789
2022-10-23T06:36:37.955Z,9.443765
2022-10-23T06:37:40.646Z,9.443744
2022-10-23T06:38:38.734Z,9.443700
2022-10-23T06:39:37.926Z,9.443769
2022-10-23T06:40:37.941Z,9.443717
2022-10-23T06:41:39.277Z,9.443709
2022-10-23T06:42:37.958Z,9.443724
2022-10-23T06:43:37.912Z,9.443777
2022-10-23T06:44:37.984Z,9.443754
2022-10-23T06:45:37.884Z,9.443648
2022-10-23T06:46:37.877Z,9.443709
2022-10-23T06:47:37.874Z,9.443780
2022-10-23T06:48:37.879Z,9.443704
2022-10-23T06:49:37.885Z,9.443743
2022-10-23T06:50:37.853Z,9.443779
2022-10-23T06:51:37.878Z,9.443874
2022-10-23T06:52:47.602Z,9.443723
2022-10-23T06:53:39.837Z,9.443752
2022-10-23T06:54:37.830Z,9.443835
2022-10-23T06:56:37.878Z,9.443871
2022-10-23T06:57:37.801Z,9.443807
2022-10-23T06:58:37.829Z,9.443830
2022-10-23T06:59:37.838Z,9.443811
2022-10-23T07:00:37.815Z,9.443789
2022-10-23T07:01:41.473Z,9.443623
2022-10-23T07:02:37.788Z,9.443655
2022-10-23T07:03:37.893Z,9.443739
2022-10-23T07:04:37.974Z,9.443731
2022-10-23T07:05:38.074Z,9.443690
2022-10-23T07:06:37.763Z,9.443661
2022-10-23T07:07:37.741Z,9.443739
2022-10-23T07:08:37.755Z,9.443814
2022-10-23T07:09:38.720Z,9.443722
2022-10-23T07:10:37.710Z,9.443776
2022-10-23T07:11:37.718Z,9.443743
2022-10-23T07:12:38.933Z,9.443736
2022-10-23T07:13:38.698Z,9.443770
2022-10-23T07:14:37.717Z,9.443786
2022-10-23T07:15:37.692Z,9.443825
2022-10-23T07:16:37.677Z,9.443828
2022-10-23T07:17:37.654Z,9.443769
2022-10-23T07:18:37.665Z,9.443758
2022-10-23T07:19:37.665Z,9.443816
2022-10-23T07:20:38.688Z,9.443854
2022-10-23T07:21:37.648Z,9.443812
2022-10-23T07:22:37.644Z,9.443773
2022-10-23T07:23:37.633Z,9.443761
2022-10-23T07:24:37.624Z,9.443755
2022-10-23T07:25:37.690Z,9.443809
2022-10-23T07:26:37.671Z,9.443817
2022-10-23T07:27:37.603Z,9.443831
2022-10-23T07:28:37.708Z,9.443811
2022-10-23T07:29:37.643Z,9.443795
2022-10-23T07:30:37.618Z,9.443770
2022-10-23T07:31:37.572Z,9.443767
2022-10-23T07:32:37.606Z,9.443760
2022-10-23T07:33:37.564Z,9.443773
2022-10-23T07:34:37.550Z,9.443776
2022-10-23T07:35:40.407Z,9.443769
2022-10-23T07:36:37.559Z,9.443727
2022-10-23T07:37:37.540Z,9.443731
2022-10-23T07:38:37.778Z,9.443740
2022-10-23T07:39:37.519Z,9.443761
2022-10-23T07:40:37.744Z,9.443816
2022-10-23T07:41:37.522Z,9.443820
2022-10-23T07:42:37.490Z,9.443790
2022-10-23T07:43:47.809Z,9.443743
2022-10-23T07:44:37.478Z,9.443769
2022-10-23T07:45:37.485Z,9.443810
2022-10-23T07:46:37.495Z,9.443807
2022-10-23T07:47:37.474Z,9.443731
2022-10-23T07:48:37.479Z,9.443727
2022-10-23T07:49:37.465Z,9.443743
2022-10-23T07:50:37.434Z,9.443796
2022-10-23T07:51:37.465Z,9.443818
2022-10-23T07:52:37.438Z,9.443807
2022-10-23T07:53:37.421Z,9.443777
2022-10-23T07:54:37.425Z,9.443730
2022-10-23T07:55:37.409Z,9.443871
2022-10-23T07:56:37.417Z,9.443844
2022-10-23T07:57:37.446Z,9.443800
2022-10-23T07:58:37.419Z,9.443720
2022-10-23T07:59:38.134Z,9.443844
2022-10-23T08:00:37.380Z,9.443701
2022-10-23T08:01:37.429Z,9.443703
2022-10-23T08:02:37.412Z,9.443701
2022-10-23T08:03:37.345Z,9.443789
2022-10-23T08:04:37.345Z,9.443731
2022-10-23T08:05:37.341Z,9.443618
2022-10-23T08:06:37.324Z,9.443666
2022-10-23T08:07:37.752Z,9.443712
2022-10-23T08:08:38.190Z,9.443746
2022-10-23T08:09:37.334Z,9.443717
2022-10-23T08:10:37.320Z,9.443660
2022-10-23T08:11:37.310Z,9.443630
2022-10-23T08:12:37.322Z,9.443750
2022-10-23T08:13:37.299Z,9.443788
2022-10-23T08:14:37.288Z,9.443740
2022-10-23T08:15:37.291Z,9.443660
2022-10-23T08:16:37.277Z,9.443666
2022-10-23T08:17:37.287Z,9.443714
2022-10-23T08:18:37.262Z,9.443711
2022-10-23T08:19:37.264Z,9.443707
2022-10-23T08:20:37.262Z,9.443661
2022-10-23T08:21:37.241Z,9.443668
2022-10-23T08:22:37.259Z,9.443612
2022-10-23T08:23:37.297Z,9.443615
2022-10-23T08:24:37.236Z,9.443716
2022-10-23T08:25:37.212Z,9.443740
2022-10-23T08:26:37.223Z,9.443698
2022-10-23T08:27:37.212Z,9.443712
2022-10-23T08:28:37.224Z,9.443675
2022-10-23T08:29:37.197Z,9.443686
2022-10-23T08:30:37.184Z,9.443709
2022-10-23T08:31:37.179Z,9.443665
2022-10-23T08:32:37.193Z,9.443688
2022-10-23T08:33:37.245Z,9.443648
2022-10-23T08:34:37.152Z,9.443711
2022-10-23T08:35:37.179Z,9.443671
2022-10-23T08:36:37.140Z,9.443641
2022-10-23T08:37:37.154Z,9.443616
2022-10-23T08:38:37.176Z,9.443553
2022-10-23T08:39:37.137Z,9.443537
2022-10-23T08:40:37.171Z,9.443586
2022-10-23T08:41:37.148Z,9.443578
2022-10-23T08:42:37.109Z,9.443602
2022-10-23T08:43:37.125Z,9.443684
2022-10-23T08:44:37.100Z,9.443648
2022-10-23T08:45:37.117Z,9.443699
2022-10-23T08:46:37.108Z,9.443686
2022-10-23T08:47:37.104Z,9.443661
2022-10-23T08:48:37.136Z,9.443742
2022-10-23T08:49:37.091Z,9.443712
2022-10-23T08:50:37.078Z,9.443715
2022-10-23T08:51:37.094Z,9.443726
2022-10-23T08:52:37.058Z,9.443702
2022-10-23T08:53:37.058Z,9.443703
2022-10-23T08:54:37.074Z,9.443695
2022-10-23T08:55:37.050Z,9.443747
2022-10-23T08:56:37.038Z,9.443720
2022-10-23T08:57:40.080Z,9.443677
2022-10-23T08:58:39.770Z,9.443736
2022-10-23T08:59:38.077Z,9.443723
2022-10-23T09:00:37.086Z,9.443733
2022-10-23T09:01:37.124Z,9.443668
2022-10-23T09:02:37.005Z,9.443624
2022-10-23T09:03:37.013Z,9.443689
2022-10-23T09:04:37.069Z,9.443669
2022-10-23T09:05:37.014Z,9.443789
2022-10-23T09:06:37.013Z,9.443789
2022-10-23T09:07:36.977Z,9.443731
2022-10-23T09:08:36.997Z,9.443840
2022-10-23T09:09:36.988Z,9.443978
2022-10-23T09:10:36.973Z,9.443838
2022-10-23T09:11:37.025Z,9.443726
2022-10-23T09:12:36.952Z,9.443714
2022-10-23T09:13:36.938Z,9.443725
2022-10-23T09:14:37.759Z,9.443729
2022-10-23T09:15:36.923Z,9.443704
2022-10-23T09:16:36.983Z,9.443686
2022-10-23T09:17:36.933Z,9.443648
2022-10-23T09:18:36.916Z,9.443759
2022-10-23T09:19:36.951Z,9.443701
2022-10-23T09:20:36.971Z,9.443689
2022-10-23T09:21:36.982Z,9.443742
2022-10-23T09:22:36.922Z,9.443783
2022-10-23T09:23:36.879Z,9.443716
2022-10-23T09:24:36.866Z,9.443751
2022-10-23T09:25:36.917Z,9.443664
2022-10-23T09:26:36.871Z,9.443727
2022-10-23T09:27:36.854Z,9.443683
2022-10-23T09:28:36.895Z,9.443835
2022-10-23T09:29:36.862Z,9.443726
2022-10-23T09:30:36.953Z,9.443685
2022-10-23T09:31:36.823Z,9.443723
2022-10-23T09:32:36.974Z,9.443757
2022-10-23T09:33:36.818Z,9.443667
2022-10-23T09:34:36.814Z,9.443686
2022-10-23T09:35:36.798Z,9.443647
2022-10-23T09:36:36.778Z,9.443567
2022-10-23T09:37:36.758Z,9.443742
2022-10-23T09:38:36.802Z,9.443790
2022-10-23T09:39:38.690Z,9.443660
2022-10-23T09:40:36.742Z,9.443766
2022-10-23T09:41:36.732Z,9.443698
2022-10-23T09:42:36.758Z,9.443760
2022-10-23T09:43:36.743Z,9.443969
2022-10-23T09:44:36.734Z,9.443833
2022-10-23T09:45:36.713Z,9.443727
2022-10-23T09:46:36.744Z,9.443782
2022-10-23T09:47:36.698Z,9.443708
2022-10-23T09:48:36.709Z,9.443709
2022-10-23T09:49:36.720Z,9.443805
2022-10-23T09:50:36.683Z,9.443761
2022-10-23T09:51:36.888Z,9.443675
2022-10-23T09:52:36.671Z,9.443707
2022-10-23T09:53:36.672Z,9.443701
2022-10-23T09:54:36.691Z,9.443706
2022-10-23T09:55:36.663Z,9.443801
2022-10-23T09:56:36.710Z,9.443811
2022-10-23T09:57:36.972Z,9.443792
2022-10-23T09:58:36.678Z,9.443840
2022-10-23T09:59:36.629Z,9.443856
2022-10-23T10:00:36.640Z,9.443905
2022-10-23T10:01:36.762Z,9.443962
2022-10-23T10:02:36.607Z,9.443928
2022-10-23T10:03:36.592Z,9.443744
2022-10-23T10:04:36.603Z,9.443739
2022-10-23T10:05:36.590Z,9.443731
2022-10-23T10:06:36.615Z,9.443701
2022-10-23T10:07:36.897Z,9.443704
2022-10-23T10:08:36.563Z,9.443698
2022-10-23T10:09:36.563Z,9.443665
2022-10-23T10:10:36.579Z,9.443782
2022-10-23T10:11:36.583Z,9.443789
2022-10-23T10:12:36.532Z,9.443833
2022-10-23T10:13:36.527Z,9.443750
2022-10-23T10:14:36.534Z,9.443662
2022-10-23T10:15:36.725Z,9.443731
2022-10-23T10:16:36.522Z,9.443743
2022-10-23T10:17:36.525Z,9.443724
2022-10-23T10:18:36.571Z,9.443666
2022-10-23T10:19:36.483Z,9.443638
2022-10-23T10:20:36.487Z,9.443694
2022-10-23T10:21:36.839Z,9.443666
2022-10-23T10:22:36.474Z,9.443737
2022-10-23T10:23:36.500Z,9.443770
2022-10-23T10:24:36.460Z,9.443752
2022-10-23T10:25:36.495Z,9.443873
2022-10-23T10:26:36.488Z,9.443688
2022-10-23T10:27:36.440Z,9.443645
2022-10-23T10:28:36.448Z,9.443664
2022-10-23T10:29:36.441Z,9.443703
2022-10-23T10:30:36.427Z,9.443729
2022-10-23T10:31:36.424Z,9.443755
2022-10-23T10:32:37.430Z,9.443747
2022-10-23T10:33:36.405Z,9.443763
2022-10-23T10:34:36.412Z,9.443744
2022-10-23T10:35:36.389Z,9.443702
2022-10-23T10:36:36.389Z,9.443749
2022-10-23T10:37:36.384Z,9.443727
2022-10-23T10:38:36.373Z,9.443739
2022-10-23T10:39:36.360Z,9.443794
2022-10-23T10:40:36.357Z,9.443763
2022-10-23T10:41:36.365Z,9.443740
2022-10-23T10:42:36.360Z,9.443665
2022-10-23T10:43:36.341Z,9.443788
2022-10-23T10:44:36.333Z,9.443787
2022-10-23T10:45:36.336Z,9.443706
2022-10-23T10:46:36.329Z,9.443703
2022-10-23T10:47:36.333Z,9.443687
2022-10-23T10:48:36.312Z,9.443748
2022-10-23T10:49:36.305Z,9.443723
2022-10-23T10:50:36.303Z,9.443733
2022-10-23T10:51:36.300Z,9.443771
2022-10-23T10:52:36.305Z,9.443776
2022-10-23T10:53:36.301Z,9.443742
2022-10-23T10:54:36.261Z,9.443680
2022-10-23T10:55:36.369Z,9.443681
2022-10-23T10:56:36.249Z,9.443742
2022-10-23T10:57:36.245Z,9.443694
2022-10-23T10:58:36.282Z,9.443665
2022-10-23T10:59:36.236Z,9.443651
2022-10-23T11:00:36.273Z,9.443636
2022-10-23T11:01:36.331Z,9.443626
2022-10-23T11:02:36.216Z,9.443604
2022-10-23T11:03:39.191Z,9.443639
2022-10-23T11:04:36.226Z,9.443830
2022-10-23T11:05:36.241Z,9.443795
2022-10-23T11:06:36.222Z,9.443769
2022-10-23T11:07:36.187Z,9.443778
2022-10-23T11:08:44.622Z,9.443775
2022-10-23T11:09:38.196Z,9.443746
2022-10-23T11:10:36.252Z,9.443694
2022-10-23T11:11:36.163Z,9.443575
2022-10-23T11:12:36.155Z,9.443600
2022-10-23T11:13:36.182Z,9.443767
2022-10-23T11:14:36.150Z,9.443754
2022-10-23T11:15:36.156Z,9.443707
2022-10-23T11:16:36.126Z,9.443755
2022-10-23T11:17:36.177Z,9.443789
2022-10-23T11:18:36.127Z,9.443789
2022-10-23T11:19:36.122Z,9.443747
2022-10-23T11:20:36.258Z,9.443709
2022-10-23T11:21:36.123Z,9.443709
2022-10-23T11:22:36.094Z,9.443847
2022-10-23T11:23:36.108Z,9.443784
2022-10-23T11:24:36.099Z,9.443760
2022-10-23T11:25:36.126Z,9.443740
2022-10-23T11:26:36.074Z,9.443801
2022-10-23T11:27:37.067Z,9.443723
2022-10-23T11:28:36.059Z,9.443851
2022-10-23T11:29:36.059Z,9.443836
2022-10-23T11:30:36.155Z,9.443788
2022-10-23T11:31:36.044Z,9.443843
2022-10-23T11:32:36.062Z,9.443775
2022-10-23T11:33:36.038Z,9.443774
2022-10-23T11:34:36.024Z,9.443758
2022-10-23T11:35:36.030Z,9.443696
2022-10-23T11:36:36.033Z,9.443734
2022-10-23T11:37:36.019Z,9.443743
2022-10-23T11:38:36.006Z,9.443744
2022-10-23T11:39:35.990Z,9.443738
2022-10-23T11:40:35.987Z,9.443677
2022-10-23T11:41:36.024Z,9.443615
2022-10-23T11:42:35.983Z,9.443637
2022-10-23T11:43:35.968Z,9.443508
2022-10-23T11:44:35.990Z,9.443584
2022-10-23T11:45:35.972Z,9.443625
2022-10-23T11:46:35.975Z,9.443727
2022-10-23T11:47:39.687Z,9.443739
2022-10-23T11:48:36.942Z,9.443713
2022-10-23T11:49:35.944Z,9.443705